Time;durP1;ratioP1;P1;durP2;ratioP2;P2;SDS_P1;SDS_P2;PMS_P1;PMS_P2;Temp;Humidity;BMP_temperature;BMP_pressure;BME280_temperature;BME280_humidity;BME280_pressure;Samples;Min_cycle;Max_cycle;Signal;HPM_P1;HPM_P2
2021/12/06 00:00:31;;;;;;;0.10;0.10;;;;;;;7.36;100.00;98249.38;5011962;28;20041;-71
2021/12/06 00:02:59;;;;;;;0.00;0.00;;;;;;;7.30;100.00;98245.16;5014597;28;20029;-71
2021/12/06 00:05:26;;;;;;;;;;;;;;;7.44;100.00;98263.19;5014287;28;20417;-71
2021/12/06 00:07:51;;;;;;;0.10;0.10;;;;;;;7.46;100.00;98277.00;5014111;28;19918;-71
2021/12/06 00:10:17;;;;;;;0.20;0.20;;;;;;;7.46;100.00;98277.78;4999879;28;20034;-71
2021/12/06 00:12:43;;;;;;;0.05;0.05;;;;;;;7.47;100.00;98274.06;4976834;28;20066;-71
2021/12/06 00:15:09;;;;;;;0.00;0.00;;;;;;;7.48;100.00;98266.88;5002663;28;20091;-70
2021/12/06 00:17:35;;;;;;;5.88;0.57;;;;;;;7.43;100.00;98251.72;5014069;28;20038;-70
2021/12/06 00:20:02;;;;;;;0.20;0.20;;;;;;;7.51;100.00;98264.44;5012178;28;20029;-71
2021/12/06 00:22:27;;;;;;;0.75;0.75;;;;;;;7.53;100.00;98269.50;5013730;28;20516;-70
2021/12/06 00:24:54;;;;;;;0.00;0.00;;;;;;;7.51;100.00;98266.34;5013630;28;20026;-70
2021/12/06 00:27:21;;;;;;;0.10;0.10;;;;;;;7.54;100.00;98260.44;4992069;28;20022;-71
2021/12/06 00:29:48;;;;;;;0.35;0.35;;;;;;;7.55;100.00;98266.56;4976853;28;20121;-71
2021/12/06 00:32:13;;;;;;;0.00;0.00;;;;;;;7.55;100.00;98269.25;4976486;28;20038;-71
2021/12/06 00:34:40;;;;;;;0.30;0.30;;;;;;;7.51;100.00;98258.34;4993522;28;20026;-72
2021/12/06 00:39:51;;;;;;;6.93;0.63;;;;;;;7.44;100.00;98258.63;4993935;28;20031;-72
2021/12/06 00:42:19;;;;;;;0.03;0.03;;;;;;;7.53;100.00;98275.63;4993418;28;20034;-71
2021/12/06 00:44:45;;;;;;;;;;;;;;;7.55;100.00;98283.31;4976730;28;20033;-72
2021/12/06 00:47:11;;;;;;;0.00;0.00;;;;;;;7.50;100.00;98281.47;4993822;28;20004;-72
2021/12/06 00:49:36;;;;;;;0.00;0.00;;;;;;;7.46;100.00;98291.09;4993488;28;20097;-72
2021/12/06 00:52:03;;;;;;;1.75;1.65;;;;;;;7.38;100.00;98275.69;4994021;28;20030;-73
2021/12/06 00:54:30;;;;;;;0.00;0.00;;;;;;;7.28;100.00;98260.59;4976057;28;20038;-73
2021/12/06 00:56:56;;;;;;;0.00;0.00;;;;;;;7.25;100.00;98260.34;4986767;28;20478;-73
2021/12/06 00:59:21;;;;;;;0.40;0.40;;;;;;;7.21;100.00;98255.56;5008250;28;20048;-72
2021/12/06 01:01:47;;;;;;;0.00;0.00;;;;;;;7.25;100.00;98260.34;4995601;28;20059;-72
2021/12/06 01:04:12;;;;;;;0.90;0.90;;;;;;;7.25;100.00;98257.66;4993508;28;20441;-71
2021/12/06 01:06:38;;;;;;;1.65;1.55;;;;;;;7.23;100.00;98244.66;4993266;28;20030;-72
2021/12/06 01:09:03;;;;;;;0.00;0.00;;;;;;;7.19;100.00;98244.41;4975974;28;20120;-72
2021/12/06 01:11:29;;;;;;;0.00;0.00;;;;;;;7.19;100.00;98238.31;4993162;28;20446;-70
2021/12/06 01:13:54;;;;;;;0.00;0.00;;;;;;;7.23;100.00;98247.31;4993565;28;20053;-71
2021/12/06 01:16:20;;;;;;;0.00;0.00;;;;;;;7.22;100.00;98251.03;5003650;28;20041;-70
2021/12/06 01:18:46;;;;;;;0.13;0.13;;;;;;;7.02;100.00;98212.06;5010472;28;20076;-71
2021/12/06 01:21:21;;;;;;;0.00;0.00;;;;;;;7.10;100.00;98230.06;4994089;28;20030;-72
2021/12/06 01:23:57;;;;;;;0.00;0.00;;;;;;;7.02;100.00;98233.31;5001547;28;20042;-71
2021/12/06 01:32:03;;;;;;;0.00;0.00;;;;;;;7.07;100.00;98219.19;4997237;28;20465;-73
2021/12/06 01:39:39;;;;;;;1.38;1.13;;;;;;;6.75;100.00;98185.84;5012034;28;20575;-70
2021/12/06 01:42:07;;;;;;;0.00;0.00;;;;;;;6.96;100.00;98213.94;5012390;28;20026;-70
2021/12/06 01:44:38;;;;;;;0.00;0.00;;;;;;;6.91;100.00;98191.88;5012148;28;20034;-69
2021/12/06 01:47:10;;;;;;;0.00;0.00;;;;;;;6.86;100.00;98193.50;4990168;28;20100;-70
2021/12/06 01:49:39;;;;;;;0.00;0.00;;;;;;;6.79;100.00;98194.88;4974793;28;20038;-69
2021/12/06 01:52:06;;;;;;;;;;;;;;;6.80;100.00;98199.09;4993067;28;20026;-69
2021/12/06 01:54:32;;;;;;;0.53;0.53;;;;;;;6.73;100.00;98204.72;4992703;28;20353;-70
2021/12/06 01:56:57;;;;;;;0.10;0.10;;;;;;;6.76;100.00;98208.69;5002470;28;20109;-70
2021/12/06 01:59:24;;;;;;;0.00;0.00;;;;;;;6.76;100.00;98200.72;4992777;28;20117;-70
2021/12/06 02:01:50;;;;;;;0.00;0.00;;;;;;;6.80;100.00;98186.63;5002676;28;20057;-69
2021/12/06 02:04:16;;;;;;;0.13;0.13;;;;;;;6.72;100.00;98173.91;5011837;28;20046;-69
2021/12/06 02:06:42;;;;;;;0.00;0.00;;;;;;;6.66;100.00;98167.78;5011677;28;20033;-70
2021/12/06 02:09:10;;;;;;;0.00;0.00;;;;;;;6.73;100.00;98180.81;4994249;28;20030;-70
2021/12/06 02:11:38;;;;;;;0.00;0.00;;;;;;;6.72;100.00;98181.88;5012044;28;20030;-71
2021/12/06 02:14:24;;;;;;;0.00;0.00;;;;;;;6.65;100.00;98166.22;5011678;28;20037;-69
2021/12/06 02:19:32;;;;;;;0.93;0.52;;;;;;;6.61;100.00;98154.53;4997660;28;20112;-70
2021/12/06 02:21:59;;;;;;;0.10;0.10;;;;;;;6.73;100.00;98186.13;5011591;28;20029;-70
2021/12/06 02:24:25;;;;;;;0.00;0.00;;;;;;;6.64;100.00;98158.50;4992936;28;20099;-72
2021/12/06 02:26:51;;;;;;;0.50;0.50;;;;;;;6.64;100.00;98150.53;4992228;28;20490;-70
2021/12/06 02:29:18;;;;;;;0.00;0.00;;;;;;;6.63;100.00;98152.41;4991972;28;20109;-72
2021/12/06 02:31:44;;;;;;;0.00;0.00;;;;;;;6.59;100.00;98143.38;4980936;28;20130;-71
2021/12/06 02:34:10;;;;;;;0.10;0.10;;;;;;;6.58;100.00;98133.84;4974359;28;20030;-72
2021/12/06 02:36:35;;;;;;;0.68;0.68;;;;;;;6.54;100.00;98130.13;4991722;28;20026;-72
2021/12/06 02:39:03;;;;;;;0.20;0.20;;;;;;;6.54;100.00;98138.09;4974450;28;20040;-72
2021/12/06 02:41:29;;;;;;;0.60;0.60;;;;;;;6.48;100.00;98129.34;4991687;28;20041;-72
2021/12/06 02:43:55;;;;;;;0.10;0.10;;;;;;;6.46;100.00;98125.38;4995988;28;20029;-72
2021/12/06 02:46:22;;;;;;;0.10;0.10;;;;;;;6.49;100.00;98144.22;5010830;28;20470;-72
2021/12/06 02:48:48;;;;;;;0.00;0.00;;;;;;;6.42;100.00;98119.81;5011356;28;20034;-71
2021/12/06 02:51:15;;;;;;;1.85;1.00;;;;;;;6.48;100.00;98133.84;4993694;28;20041;-70
2021/12/06 02:53:41;;;;;;;1.25;1.25;;;;;;;6.49;100.00;98144.22;5011026;28;20033;-72
2021/12/06 02:58:58;;;;;;;0.00;0.00;;;;;;;6.56;100.00;98139.41;4991610;28;20037;-70
2021/12/06 03:01:38;;;;;;;0.10;0.10;;;;;;;6.59;100.00;98140.72;4975858;28;20034;-70
2021/12/06 03:04:05;;;;;;;0.00;0.00;;;;;;;6.52;100.00;98125.09;5011257;28;20065;-74
2021/12/06 03:06:31;;;;;;;0.00;0.00;;;;;;;6.57;100.00;98132.25;5011030;28;20026;-71
2021/12/06 03:09:08;;;;;;;0.00;0.00;;;;;;;6.55;100.00;98129.06;5011249;28;20037;-74
2021/12/06 03:11:43;;;;;;;0.00;0.00;;;;;;;6.52;100.00;98135.72;4994862;28;20047;-74
2021/12/06 03:14:16;;;;;;;0.08;0.08;;;;;;;6.28;100.00;98110.84;4974112;28;20030;-72
2021/12/06 03:16:42;;;;;;;0.00;0.00;;;;;;;6.29;100.00;98110.56;4991519;28;20027;-73
2021/12/06 03:19:08;;;;;;;0.00;0.00;;;;;;;6.55;100.00;98151.13;5009806;28;20029;-73
2021/12/06 03:21:35;;;;;;;0.00;0.00;;;;;;;6.60;100.00;98149.50;5010910;28;20044;-78
2021/12/06 03:24:01;;;;;;;0.00;0.00;;;;;;;6.58;100.00;98147.13;4993406;28;20068;-72
2021/12/06 03:26:28;;;;;;;0.00;0.00;;;;;;;6.61;100.00;98148.44;4981047;28;20457;-71
2021/12/06 03:28:54;;;;;;;0.00;0.00;;;;;;;6.60;100.00;98137.00;4991398;28;20034;-71
2021/12/06 03:31:21;;;;;;;0.65;0.65;;;;;;;6.60;100.00;98133.56;4993325;28;20070;-71
2021/12/06 03:33:50;;;;;;;0.00;0.00;;;;;;;6.62;100.00;98140.19;5008947;28;20068;-71
2021/12/06 03:36:18;;;;;;;0.00;0.00;;;;;;;6.63;100.00;98133.00;5002909;28;20030;-73
2021/12/06 03:38:44;;;;;;;0.00;0.00;;;;;;;6.62;100.00;98140.19;4991151;28;20022;-73
2021/12/06 03:41:11;;;;;;;0.08;0.08;;;;;;;6.55;100.00;98129.88;4991539;28;20117;-73
2021/12/06 03:43:39;;;;;;;0.00;0.00;;;;;;;6.60;100.00;98139.66;4989758;28;20019;-73
2021/12/06 03:46:06;;;;;;;0.00;0.00;;;;;;;6.55;100.00;98132.53;4991043;28;20096;-71
2021/12/06 03:48:32;;;;;;;0.00;0.00;;;;;;;6.61;100.00;98135.16;4992043;28;20097;-71
2021/12/06 03:50:58;;;;;;;0.00;0.00;;;;;;;6.63;100.00;98138.31;4991313;28;20073;-70
2021/12/06 03:53:24;;;;;;;0.00;0.00;;;;;;;6.57;100.00;98121.63;4990853;28;20033;-70
2021/12/06 03:55:50;;;;;;;0.00;0.00;;;;;;;6.58;100.00;98117.91;4990921;28;20031;-71
2021/12/06 03:58:16;;;;;;;0.00;0.00;;;;;;;6.70;100.00;98142.28;5009249;28;20052;-71
2021/12/06 04:00:42;;;;;;;0.05;0.05;;;;;;;6.70;100.00;98131.66;5010702;28;20481;-70
2021/12/06 04:03:08;;;;;;;0.00;0.00;;;;;;;6.66;100.00;98114.66;5002830;28;20027;-72
2021/12/06 04:05:34;;;;;;;0.13;0.13;;;;;;;6.73;100.00;98122.34;4990104;28;20062;-74
2021/12/06 04:07:59;;;;;;;0.00;0.00;;;;;;;6.70;100.00;98120.22;4973084;28;20034;-74
2021/12/06 04:10:26;;;;;;;0.00;0.00;;;;;;;6.67;100.00;98128.75;4993703;28;20042;-71
2021/12/06 04:12:55;;;;;;;0.00;0.00;;;;;;;6.63;100.00;98123.19;4994419;28;20035;-71
2021/12/06 04:15:21;;;;;;;0.00;0.00;;;;;;;6.60;100.00;98118.41;4994247;28;20036;-72
2021/12/06 04:17:47;;;;;;;0.00;0.00;;;;;;;6.66;100.00;98130.59;4994477;28;20097;-70
2021/12/06 04:20:12;;;;;;;0.00;0.00;;;;;;;6.61;100.00;98127.19;4994981;28;20094;-70
2021/12/06 04:22:40;;;;;;;0.00;0.00;;;;;;;6.62;100.00;98126.13;4994208;28;20049;-70
2021/12/06 04:25:09;;;;;;;0.00;0.00;;;;;;;6.61;100.00;98121.88;4994489;28;20026;-73
2021/12/06 04:27:35;;;;;;;0.00;0.00;;;;;;;6.59;100.00;98122.13;4977030;28;20505;-73
2021/12/06 04:30:03;;;;;;;0.00;0.00;;;;;;;6.65;100.00;98131.69;4976904;28;20044;-74
2021/12/06 04:32:29;;;;;;;0.00;0.00;;;;;;;6.60;100.00;98121.06;4976530;28;20545;-72
2021/12/06 04:34:55;;;;;;;0.10;0.10;;;;;;;6.66;100.00;98119.19;4994108;28;20092;-74
2021/12/06 04:37:20;;;;;;;0.00;0.00;;;;;;;6.72;100.00;98113.56;4994220;28;20034;-73
2021/12/06 04:39:46;;;;;;;0.00;0.00;;;;;;;6.74;100.00;98115.97;4993685;28;20478;-74
2021/12/06 04:42:12;;;;;;;0.30;0.30;;;;;;;6.71;100.00;98116.50;4976588;28;20044;-74
2021/12/06 04:44:37;;;;;;;0.00;0.00;;;;;;;6.82;100.00;98131.34;4993761;28;20125;-73
2021/12/06 04:47:04;;;;;;;0.10;0.10;;;;;;;6.85;100.00;98125.47;5010231;28;20542;-72
2021/12/06 04:49:29;;;;;;;0.00;0.00;;;;;;;6.76;100.00;98113.81;4995629;28;20390;-74
2021/12/06 04:51:58;;;;;;;0.10;0.10;;;;;;;6.83;100.00;98124.94;5011192;28;20025;-72
2021/12/06 04:54:31;;;;;;;2.83;1.27;;;;;;;6.85;100.00;98122.81;4976233;28;20093;-71
2021/12/06 04:57:14;;;;;;;0.10;0.10;;;;;;;6.86;100.00;98123.59;4976228;28;20526;-71
2021/12/06 04:59:45;;;;;;;0.10;0.10;;;;;;;6.97;100.00;98129.66;4993240;28;20088;-71
2021/12/06 05:02:20;;;;;;;0.10;0.10;;;;;;;6.91;100.00;98117.47;4993668;28;20548;-71
2021/12/06 05:04:49;;;;;;;0.00;0.00;;;;;;;6.98;100.00;98125.94;4993161;28;20414;-71
2021/12/06 05:07:29;;;;;;;0.00;0.00;;;;;;;7.04;100.00;98135.47;4993408;28;20039;-71
2021/12/06 05:09:54;;;;;;;0.00;0.00;;;;;;;7.11;100.00;98143.16;5000952;28;20037;-70
2021/12/06 05:12:24;;;;;;;0.00;0.00;;;;;;;7.12;100.00;98131.44;4979131;28;20141;-69
2021/12/06 05:14:50;;;;;;;0.10;0.10;;;;;;;7.12;100.00;98129.56;5002066;28;20504;-71
2021/12/06 05:17:16;;;;;;;0.00;0.00;;;;;;;7.20;100.00;98138.81;4980387;28;20073;-71
2021/12/06 05:19:42;;;;;;;0.00;0.00;;;;;;;7.16;100.00;98127.94;5002513;28;20234;-71
2021/12/06 05:22:07;;;;;;;0.15;0.15;;;;;;;7.25;100.00;98135.34;5003467;28;20026;-75
2021/12/06 05:24:34;;;;;;;0.10;0.10;;;;;;;7.18;100.00;98125.81;4992663;28;20026;-70
2021/12/06 05:27:00;;;;;;;0.10;0.10;;;;;;;7.20;100.00;98121.00;4993184;28;20114;-72
2021/12/06 05:29:28;;;;;;;0.00;0.00;;;;;;;7.29;100.00;98144.38;4993992;28;20472;-70
2021/12/06 05:31:56;;;;;;;1.55;0.43;;;;;;;7.26;100.00;98135.06;5002013;28;20069;-70
2021/12/06 05:34:32;;;;;;;0.20;0.20;;;;;;;7.30;100.00;98138.75;5010544;28;20057;-70
2021/12/06 05:36:58;;;;;;;0.00;0.00;;;;;;;7.33;100.00;98132.88;5012639;28;20034;-69
2021/12/06 05:39:30;;;;;;;0.00;0.00;;;;;;;7.36;100.00;98135.00;5011312;28;20500;-69
2021/12/06 05:42:00;;;;;;;0.03;0.03;;;;;;;7.46;100.00;98150.09;4994411;28;20477;-69
2021/12/06 05:44:26;;;;;;;0.00;0.00;;;;;;;7.50;100.00;98143.13;4994276;28;20029;-69
2021/12/06 05:46:51;;;;;;;0.00;0.00;;;;;;;7.39;100.00;98128.31;5011941;28;20057;-70
2021/12/06 05:49:17;;;;;;;0.00;0.00;;;;;;;7.60;100.00;98152.91;5012122;28;20049;-69
2021/12/06 05:51:42;;;;;;;0.00;0.00;;;;;;;7.63;100.00;98154.22;5012016;28;20121;-69
2021/12/06 05:54:08;;;;;;;0.00;0.00;;;;;;;7.62;100.00;98144.66;5012093;28;20443;-70
2021/12/06 05:56:33;;;;;;;0.00;0.00;;;;;;;7.61;100.00;98135.88;5011286;28;20033;-70
2021/12/06 05:58:59;;;;;;;0.00;0.00;;;;;;;7.64;100.00;98139.84;5011506;28;20442;-70
2021/12/06 06:01:29;;;;;;;0.00;0.00;;;;;;;7.74;100.00;98138.97;5011163;28;20061;-70
2021/12/06 06:03:55;;;;;;;0.00;0.00;;;;;;;7.83;100.00;98156.72;5011282;28;20509;-70
2021/12/06 06:06:20;;;;;;;0.00;0.00;;;;;;;7.75;100.00;98138.69;4993773;28;20025;-70
2021/12/06 06:08:46;;;;;;;0.00;0.00;;;;;;;7.87;100.00;98158.81;5011224;28;20034;-70
2021/12/06 06:11:12;;;;;;;0.00;0.00;;;;;;;7.90;100.00;98160.91;5010975;28;20025;-72
2021/12/06 06:13:37;;;;;;;0.00;0.00;;;;;;;7.88;100.00;98155.88;5010757;28;20441;-70
2021/12/06 06:16:03;;;;;;;0.10;0.10;;;;;;;7.90;100.00;98144.94;5010915;28;20088;-70
2021/12/06 06:18:28;;;;;;;0.40;0.40;;;;;;;7.97;100.00;98151.53;5010553;28;20854;-70
2021/12/06 06:20:55;;;;;;;0.00;0.00;;;;;;;7.99;100.00;98145.94;5011293;28;20030;-70
2021/12/06 06:23:21;;;;;;;0.00;0.00;;;;;;;7.91;100.00;98122.56;5010874;28;20026;-71
2021/12/06 06:25:47;;;;;;;0.00;0.00;;;;;;;8.04;100.00;98150.41;4993040;28;20469;-70
2021/12/06 06:28:13;;;;;;;0.20;0.20;;;;;;;8.05;100.00;98147.47;5010641;28;20038;-70
2021/12/06 06:30:39;;;;;;;0.08;0.08;;;;;;;8.09;100.00;98142.38;5010653;28;20017;-70
2021/12/06 06:33:05;;;;;;;0.32;0.32;;;;;;;8.25;100.00;98161.66;5010932;28;20030;-70
2021/12/06 06:35:31;;;;;;;4.38;2.55;;;;;;;8.33;100.00;98163.72;5010633;28;20497;-70
2021/12/06 06:37:58;;;;;;;0.75;0.75;;;;;;;8.40;100.00;98164.16;5010971;28;20030;-69
2021/12/06 06:40:24;;;;;;;0.20;0.20;;;;;;;8.40;100.00;98150.03;5010695;28;20386;-68
2021/12/06 06:42:49;;;;;;;0.65;0.63;;;;;;;8.47;100.00;98155.84;5010134;28;20033;-69
2021/12/06 06:45:17;;;;;;;0.20;0.20;;;;;;;8.58;100.00;98159.19;5010684;28;20029;-69
2021/12/06 06:47:43;;;;;;;0.30;0.30;;;;;;;8.63;100.00;98159.16;5010426;28;20095;-69
2021/12/06 06:50:09;;;;;;;0.47;0.47;;;;;;;8.61;100.00;98150.66;5010655;28;20029;-69
2021/12/06 06:52:35;;;;;;;0.03;0.03;;;;;;;8.67;100.00;98164.69;5011094;28;20037;-69
2021/12/06 06:55:03;;;;;;;0.22;0.22;;;;;;;8.74;100.00;98165.13;5011261;28;20117;-69
2021/12/06 06:57:28;;;;;;;0.20;0.20;;;;;;;8.79;100.00;98173.88;4993403;28;20037;-69
2021/12/06 06:59:54;;;;;;;1.35;0.95;;;;;;;8.72;100.00;98165.44;5010809;28;20539;-69
2021/12/06 07:02:19;;;;;;;1.40;1.00;;;;;;;8.70;100.00;98140.91;5011120;28;20026;-69
2021/12/06 07:04:45;;;;;;;0.35;0.35;;;;;;;8.87;100.00;98150.31;5010637;28;20121;-69
2021/12/06 07:07:10;;;;;;;0.10;0.10;;;;;;;8.94;100.00;98150.78;5011450;28;20079;-70
2021/12/06 07:09:36;;;;;;;0.40;0.40;;;;;;;9.12;100.00;98157.97;4993376;28;20088;-70
2021/12/06 07:12:02;;;;;;;0.52;0.52;;;;;;;9.22;100.00;98165.06;5011098;28;20401;-71
2021/12/06 07:14:28;;;;;;;0.10;0.10;;;;;;;9.37;100.00;98169.38;5011173;28;20045;-70
2021/12/06 07:16:53;;;;;;;0.20;0.20;;;;;;;9.45;100.00;98166.06;4993380;28;20029;-70
2021/12/06 07:19:19;;;;;;;0.32;0.32;;;;;;;9.63;100.00;98169.00;5011036;28;20065;-70
2021/12/06 07:21:44;;;;;;;0.20;0.20;;;;;;;9.62;100.00;98132.72;5010831;28;20037;-70
2021/12/06 07:24:11;;;;;;;0.20;0.20;;;;;;;9.84;100.00;98156.13;5011037;28;20485;-70
2021/12/06 07:26:36;;;;;;;0.17;0.17;;;;;;;9.97;100.00;98143.88;5010770;28;20537;-70
2021/12/06 07:29:02;;;;;;;0.00;0.00;;;;;;;10.08;100.00;98147.16;5010880;28;20114;-70
2021/12/06 07:31:28;;;;;;;0.00;0.00;;;;;;;10.21;100.00;98142.91;5010541;28;20026;-70
2021/12/06 07:33:53;;;;;;;1.00;1.00;;;;;;;10.33;100.00;98135.22;5010985;28;20068;-70
2021/12/06 07:36:21;;;;;;;0.70;0.70;;;;;;;10.53;100.00;98135.94;5010934;28;20507;-69
2021/12/06 07:38:47;;;;;;;0.03;0.03;;;;;;;10.67;100.00;98118.00;5010678;28;20037;-69
2021/12/06 07:41:15;;;;;;;0.03;0.03;;;;;;;10.91;100.00;98126.88;5011196;28;20412;-69
2021/12/06 07:43:41;;;;;;;13.45;1.92;;;;;;;11.03;99.24;98127.16;4993670;28;20099;-70
2021/12/06 07:46:08;;;;;;;0.30;0.30;;;;;;;11.18;98.93;98134.03;5014630;28;20030;-70
2021/12/06 07:48:34;;;;;;;1.55;0.52;;;;;;;11.23;98.04;98122.44;5014409;28;20497;-70
2021/12/06 07:51:01;;;;;;;0.43;0.40;;;;;;;11.34;97.43;98124.56;5014530;28;20160;-69
2021/12/06 07:53:29;;;;;;;0.10;0.10;;;;;;;11.41;95.99;98118.00;4996951;28;20386;-69
2021/12/06 07:55:54;;;;;;;1.48;0.93;;;;;;;11.56;96.20;98131.03;5014601;28;20048;-69
2021/12/06 07:58:20;;;;;;;0.10;0.10;;;;;;;11.64;96.72;98124.91;5014244;28;20030;-69
2021/12/06 08:00:48;;;;;;;1.00;1.00;;;;;;;11.81;94.97;98134.94;5014187;28;20453;-69
2021/12/06 08:03:16;;;;;;;1.98;1.17;;;;;;;11.88;94.51;98115.78;5014266;28;20079;-69
2021/12/06 08:05:43;;;;;;;;;;;;;;;12.08;93.41;98135.91;5014457;28;20057;-69
2021/12/06 08:08:15;;;;;;;0.50;0.50;;;;;;;12.11;93.03;98131.84;5014540;28;19921;-69
2021/12/06 08:10:48;;;;;;;0.17;0.17;;;;;;;12.24;91.14;98151.59;5013695;28;20030;-69
2021/12/06 08:13:18;;;;;;;0.20;0.20;;;;;;;12.28;91.69;98148.00;5014224;28;20022;-69
2021/12/06 08:15:45;;;;;;;0.77;0.65;;;;;;;12.27;90.82;98138.38;5013857;28;20029;-69
2021/12/06 08:18:11;;;;;;;0.30;0.30;;;;;;;12.36;91.15;98141.09;5014308;28;20473;-69
2021/12/06 08:20:37;;;;;;;0.98;0.52;;;;;;;12.39;90.40;98156.56;5013665;28;20099;-69
2021/12/06 08:23:05;;;;;;;1.27;0.55;;;;;;;12.36;89.70;98143.75;5013935;28;20048;-70
2021/12/06 08:25:30;;;;;;;0.30;0.30;;;;;;;12.32;89.58;98132.09;5013997;28;20030;-70
2021/12/06 08:27:56;;;;;;;0.08;0.08;;;;;;;12.43;89.54;98132.59;5014282;28;20421;-70
2021/12/06 08:30:23;;;;;;;0.10;0.10;;;;;;;12.45;89.19;98122.34;5013806;28;20053;-70
2021/12/06 08:32:54;;;;;;;0.30;0.30;;;;;;;12.51;89.85;98126.47;5013663;28;20049;-70
2021/12/06 08:35:20;;;;;;;0.17;0.17;;;;;;;12.56;89.12;98129.03;5013810;28;20018;-70
2021/12/06 08:37:46;;;;;;;0.80;0.80;;;;;;;12.57;89.20;98122.56;5013779;28;20408;-70
2021/12/06 08:40:13;;;;;;;0.15;0.15;;;;;;;12.64;89.19;98109.44;5013286;28;20493;-70
2021/12/06 08:42:39;;;;;;;0.00;0.00;;;;;;;12.72;88.11;98107.09;5013079;28;20225;-70
2021/12/06 08:45:05;;;;;;;0.13;0.13;;;;;;;12.85;87.94;98111.53;5013608;28;20026;-70
2021/12/06 08:47:31;;;;;;;0.10;0.10;;;;;;;12.92;87.55;98119.91;4995864;28;20408;-70
2021/12/06 08:49:56;;;;;;;0.00;0.00;;;;;;;12.96;87.29;98109.34;5013158;28;20022;-70
2021/12/06 08:52:22;;;;;;;0.10;0.10;;;;;;;12.86;86.97;98082.84;5013407;28;20072;-69
2021/12/06 08:54:47;;;;;;;0.00;0.00;;;;;;;12.99;86.16;98081.91;5012904;28;20026;-70
2021/12/06 08:57:13;;;;;;;0.05;0.05;;;;;;;13.17;86.32;98100.69;5013286;28;20061;-69
2021/12/06 08:59:38;;;;;;;0.15;0.15;;;;;;;13.21;85.12;98082.84;5013124;28;20034;-69
2021/12/06 09:02:05;;;;;;;0.20;0.20;;;;;;;13.27;84.83;98076.22;5013225;28;20501;-69
2021/12/06 09:04:34;;;;;;;0.00;0.00;;;;;;;13.34;84.62;98078.41;5012860;28;20050;-69
2021/12/06 09:07:01;;;;;;;0.00;0.00;;;;;;;13.36;84.63;98068.13;5012741;28;20084;-69
2021/12/06 09:09:28;;;;;;;0.00;0.00;;;;;;;13.48;84.57;98073.69;4995460;28;20528;-70
2021/12/06 09:11:56;;;;;;;0.22;0.22;;;;;;;13.51;84.32;98069.56;5012815;28;20037;-69
2021/12/06 09:14:23;;;;;;;0.40;0.40;;;;;;;13.58;84.29;98054.53;5012979;28;20032;-71
2021/12/06 09:16:49;;;;;;;0.55;0.55;;;;;;;13.63;83.04;98050.09;5012704;28;20034;-71
2021/12/06 09:19:16;;;;;;;0.10;0.10;;;;;;;13.79;82.84;98053.84;5012635;28;20041;-71
2021/12/06 09:21:43;;;;;;;0.43;0.43;;;;;;;13.90;81.84;98062.34;5012671;28;20179;-71
2021/12/06 09:24:15;;;;;;;0.30;0.30;;;;;;;13.99;80.94;98052.34;5012880;28;20038;-71
2021/12/06 09:26:40;;;;;;;0.10;0.10;;;;;;;14.07;79.64;98051.53;5012260;28;20045;-70
2021/12/06 09:29:06;;;;;;;0.00;0.00;;;;;;;14.14;79.08;98045.63;5012477;28;20481;-70
2021/12/06 09:31:32;;;;;;;0.10;0.10;;;;;;;14.19;79.22;98037.38;5012589;28;20028;-70
2021/12/06 09:33:58;;;;;;;0.30;0.30;;;;;;;14.25;79.21;98033.38;5012302;28;20026;-70
2021/12/06 09:36:24;;;;;;;0.00;0.00;;;;;;;14.31;78.38;98017.88;4994761;28;20108;-70
2021/12/06 09:38:50;;;;;;;0.10;0.10;;;;;;;14.40;77.63;98007.84;5012058;28;20030;-70
2021/12/06 09:41:21;;;;;;;0.10;0.10;;;;;;;14.52;76.24;98017.88;5012494;28;20026;-70
2021/12/06 09:43:48;;;;;;;0.00;0.00;;;;;;;14.62;74.96;98022.06;5012139;28;20064;-70
2021/12/06 09:46:14;;;;;;;0.10;0.10;;;;;;;14.72;73.75;98010.16;4994804;28;20108;-70
2021/12/06 09:48:42;;;;;;;0.10;0.10;;;;;;;14.86;73.60;98013.38;4994565;28;20033;-70
2021/12/06 09:51:16;;;;;;;0.00;0.00;;;;;;;14.85;72.27;97989.50;5012376;28;20026;-70
2021/12/06 09:53:44;;;;;;;0.20;0.20;;;;;;;14.97;70.26;97994.16;5012007;28;20076;-70
2021/12/06 09:56:14;;;;;;;0.00;0.00;;;;;;;15.12;70.74;97998.13;5012256;28;20110;-70
2021/12/06 09:58:40;;;;;;;0.00;0.00;;;;;;;15.25;71.09;97998.97;5011591;28;20113;-70
2021/12/06 10:01:16;;;;;;;0.10;0.10;;;;;;;15.32;70.77;98002.66;5012442;28;20452;-70
2021/12/06 10:03:46;;;;;;;0.05;0.05;;;;;;;15.40;70.25;97995.59;5011673;28;20478;-70
2021/12/06 10:06:13;;;;;;;0.00;0.00;;;;;;;15.47;69.18;97977.00;5011597;28;20046;-70
2021/12/06 10:08:44;;;;;;;0.00;0.00;;;;;;;15.58;69.52;97979.25;5012013;28;20041;-70
2021/12/06 10:11:11;;;;;;;0.00;0.00;;;;;;;15.71;68.38;97975.47;5011981;28;20061;-70
2021/12/06 10:13:37;;;;;;;0.10;0.10;;;;;;;15.78;69.11;97980.28;4994349;28;20052;-71
2021/12/06 10:16:03;;;;;;;0.10;0.10;;;;;;;15.89;67.43;97986.81;5007572;28;20121;-70
2021/12/06 10:18:29;;;;;;;0.40;0.40;;;;;;;15.95;67.69;97985.50;5008272;28;20101;-71
2021/12/06 10:20:55;;;;;;;0.43;0.43;;;;;;;15.98;66.44;97975.94;4999093;28;20068;-70
2021/12/06 10:23:20;;;;;;;0.57;0.45;;;;;;;16.10;66.55;97977.81;4992438;28;20034;-70
2021/12/06 10:25:51;;;;;;;0.52;0.52;;;;;;;16.13;66.44;97960.97;4991896;28;20401;-71
2021/12/06 10:28:19;;;;;;;0.00;0.00;;;;;;;16.19;66.67;97962.31;4992179;28;20034;-71
2021/12/06 10:30:53;;;;;;;0.10;0.10;;;;;;;16.13;65.75;97940.16;4991885;28;20064;-70
2021/12/06 10:33:26;;;;;;;0.22;0.22;;;;;;;16.20;66.53;97941.50;4992285;28;20077;-71
2021/12/06 10:35:55;;;;;;;0.20;0.20;;;;;;;16.28;66.64;97948.69;4991771;28;20026;-71
2021/12/06 10:38:32;;;;;;;0.20;0.20;;;;;;;16.26;66.89;97929.34;4991764;28;20113;-71
2021/12/06 10:41:04;;;;;;;0.20;0.20;;;;;;;16.33;66.28;97927.66;4991447;28;20034;-71
2021/12/06 10:43:31;;;;;;;0.10;0.10;;;;;;;16.29;65.65;97899.00;4991677;28;20033;-71
2021/12/06 10:45:58;;;;;;;0.00;0.00;;;;;;;16.31;66.03;97919.13;4991419;28;20026;-70
2021/12/06 10:48:27;;;;;;;0.10;0.10;;;;;;;16.27;66.58;97899.34;4991572;28;20449;-71
2021/12/06 10:50:53;;;;;;;0.32;0.32;;;;;;;16.31;66.02;97915.66;4991556;28;20112;-70
2021/12/06 10:53:21;;;;;;;0.00;0.00;;;;;;;16.28;66.80;97924.41;4992110;28;20109;-70
2021/12/06 10:55:51;;;;;;;0.10;0.10;;;;;;;16.19;66.63;97902.97;4991288;28;20026;-70
2021/12/06 10:58:21;;;;;;;0.00;0.00;;;;;;;16.23;66.46;97913.88;4991826;28;20054;-71
2021/12/06 11:00:55;;;;;;;0.00;0.00;;;;;;;16.17;67.11;97900.63;4991370;28;20027;-71
2021/12/06 11:03:25;;;;;;;0.10;0.10;;;;;;;16.21;67.04;97897.22;4991645;28;20026;-71
2021/12/06 11:06:01;;;;;;;0.52;0.52;;;;;;;16.14;67.33;97890.50;4990949;28;20521;-70
2021/12/06 11:08:26;;;;;;;0.10;0.10;;;;;;;16.16;66.71;97882.88;4991984;28;20065;-70
2021/12/06 11:11:00;;;;;;;0.10;0.10;;;;;;;16.20;67.62;97909.94;4973917;28;20065;-71
2021/12/06 11:13:31;;;;;;;0.05;0.03;;;;;;;16.16;67.45;97901.75;4991552;28;20022;-71
2021/12/06 11:16:01;;;;;;;0.10;0.10;;;;;;;16.17;67.49;97907.91;4991302;28;20030;-70
2021/12/06 11:18:53;;;;;;;0.00;0.00;;;;;;;16.13;67.43;97902.41;4993376;28;20394;-70
2021/12/06 11:21:36;;;;;;;0.00;0.00;;;;;;;16.02;67.81;97893.22;4995490;28;20505;-70
2021/12/06 11:24:05;;;;;;;0.00;0.00;;;;;;;15.94;68.30;97902.22;4977591;28;20121;-70
2021/12/06 11:26:31;;;;;;;;;;;;;;;15.96;69.21;97916.16;4995516;28;20457;-71
2021/12/06 11:29:05;;;;;;;0.10;0.10;;;;;;;15.82;69.18;97889.53;4995082;28;19910;-71
2021/12/06 11:31:31;;;;;;;0.00;0.00;;;;;;;15.84;69.84;97900.78;4995122;28;20069;-71
2021/12/06 11:34:04;;;;;;;0.10;0.10;;;;;;;15.78;70.11;97905.59;4994567;28;20038;-71
2021/12/06 11:36:31;;;;;;;0.20;0.20;;;;;;;15.73;70.80;97902.34;4994806;28;20062;-71
2021/12/06 11:39:05;;;;;;;0.08;0.08;;;;;;;15.71;70.64;97883.81;4994878;28;20023;-71
2021/12/06 11:41:31;;;;;;;0.00;0.00;;;;;;;15.64;71.14;97878.97;4995114;28;20030;-71
2021/12/06 11:44:16;;;;;;;0.20;0.20;;;;;;;15.70;70.42;97901.09;4994721;28;20026;-72
2021/12/06 11:46:42;;;;;;;0.15;0.15;;;;;;;15.73;70.56;97888.88;4995113;28;20030;-71
2021/12/06 11:49:25;;;;;;;0.10;0.10;;;;;;;15.68;70.59;97874.50;4995009;28;20369;-70
2021/12/06 11:51:50;;;;;;;0.10;0.10;;;;;;;15.75;70.39;97892.00;4994401;28;20029;-71
2021/12/06 11:54:16;;;;;;;0.68;0.68;;;;;;;15.75;71.25;97898.19;4994669;28;20035;-70